createdAt,value
2023-03-05T00:01:18.070Z,79.85
2023-03-05T00:03:46.158Z,79.80
2023-03-05T00:06:17.083Z,79.81
2023-03-05T00:08:44.921Z,79.96
2023-03-05T00:11:13.583Z,79.39
2023-03-05T00:13:41.598Z,79.52
2023-03-05T00:16:11.336Z,79.46
2023-03-05T00:18:39.356Z,78.96
2023-03-05T00:21:20.786Z,79.65
2023-03-05T00:23:50.677Z,80.07
2023-03-05T00:26:18.597Z,79.64
2023-03-05T00:28:49.901Z,79.98
2023-03-05T00:31:18.134Z,79.95
2023-03-05T00:33:46.046Z,80.08
2023-03-05T00:36:13.797Z,79.98
2023-03-05T00:38:42.894Z,79.72
2023-03-05T00:41:10.665Z,79.51
2023-03-05T00:43:38.454Z,79.38
2023-03-05T00:46:06.408Z,79.00
2023-03-05T00:48:34.178Z,79.13
2023-03-05T00:51:01.956Z,79.54
2023-03-05T00:53:29.765Z,79.17
2023-03-05T00:55:59.219Z,79.23
2023-03-05T00:58:27.221Z,78.88
2023-03-05T01:00:58.919Z,78.45
2023-03-05T01:03:26.820Z,78.51
2023-03-05T01:05:54.544Z,78.52
2023-03-05T01:08:22.310Z,78.29
2023-03-05T01:10:50.278Z,78.41
2023-03-05T01:13:19.566Z,77.90
2023-03-05T01:15:48.988Z,78.29
2023-03-05T01:18:17.364Z,78.38
2023-03-05T01:20:46.144Z,78.46
2023-03-05T01:23:14.093Z,78.83
2023-03-05T01:25:42.024Z,78.90
2023-03-05T01:28:10.042Z,78.47
2023-03-05T01:30:39.371Z,77.95
2023-03-05T01:33:07.180Z,78.53
2023-03-05T01:35:35.048Z,78.81
2023-03-05T01:38:02.800Z,78.41
2023-03-05T01:40:31.614Z,78.54
2023-03-05T01:43:01.341Z,78.67
2023-03-05T01:45:32.346Z,78.47
2023-03-05T01:48:01.592Z,78.08
2023-03-05T01:50:29.567Z,78.03
2023-03-05T01:53:00.400Z,78.87
2023-03-05T01:55:30.856Z,78.45
2023-03-05T01:58:01.829Z,78.10
2023-03-05T02:00:31.936Z,78.25
2023-03-05T02:03:03.247Z,77.71
2023-03-05T02:05:33.136Z,78.15
2023-03-05T02:08:02.447Z,78.34
2023-03-05T02:10:32.547Z,77.43
2023-03-05T02:13:02.605Z,77.99
2023-03-05T02:15:30.449Z,77.29
2023-03-05T02:17:58.321Z,77.09
2023-03-05T02:20:29.824Z,77.54
2023-03-05T02:22:59.242Z,77.33
2023-03-05T02:25:29.556Z,77.00
2023-03-05T02:28:02.454Z,76.64
2023-03-05T02:30:31.371Z,76.68
2023-03-05T02:32:59.829Z,76.51
2023-03-05T02:35:27.773Z,76.77
2023-03-05T02:37:55.800Z,76.46
2023-03-05T02:40:25.186Z,76.98
2023-03-05T02:42:53.174Z,76.88
2023-03-05T02:45:21.115Z,76.58
2023-03-05T02:47:49.026Z,76.98
2023-03-05T02:50:17.180Z,76.33
2023-03-05T02:52:45.214Z,76.81
2023-03-05T02:55:13.012Z,76.41
2023-03-05T02:57:42.130Z,76.82
2023-03-05T03:00:11.364Z,76.47
2023-03-05T03:02:39.211Z,76.92
2023-03-05T03:05:08.037Z,77.00
2023-03-05T03:07:36.598Z,76.82
2023-03-05T03:10:04.740Z,76.94
2023-03-05T03:12:32.446Z,77.03
2023-03-05T03:15:02.106Z,77.13
2023-03-05T03:17:29.906Z,77.44
2023-03-05T03:19:57.744Z,76.83
2023-03-05T03:22:25.551Z,77.00
2023-03-05T03:24:53.283Z,77.10
2023-03-05T03:27:21.094Z,77.71
2023-03-05T03:29:48.874Z,78.02
2023-03-05T03:32:18.133Z,77.62
2023-03-05T03:34:45.943Z,77.99
2023-03-05T03:37:13.762Z,78.06
2023-03-05T03:39:41.534Z,78.30
2023-03-05T03:42:09.458Z,78.04
2023-03-05T03:44:37.237Z,77.78
2023-03-05T03:47:05.233Z,78.35
2023-03-05T03:49:34.396Z,78.13
2023-03-05T03:52:02.206Z,78.36
2023-03-05T03:54:29.986Z,78.03
2023-03-05T03:56:57.782Z,78.51
2023-03-05T03:59:25.736Z,78.64
2023-03-05T04:01:53.878Z,78.52
2023-03-05T04:04:21.845Z,78.90
2023-03-05T04:06:51.008Z,78.86
2023-03-05T04:09:18.838Z,78.61
2023-03-05T04:11:46.603Z,78.45
2023-03-05T04:14:14.419Z,78.67
2023-03-05T04:16:42.178Z,78.59
2023-03-05T04:19:09.974Z,78.39
2023-03-05T04:21:37.796Z,78.68
2023-03-05T04:24:08.360Z,79.17
2023-03-05T04:26:36.237Z,79.16
2023-03-05T04:29:04.181Z,78.41
2023-03-05T04:31:32.043Z,79.03
2023-03-05T04:34:00.752Z,78.82
2023-03-05T04:36:28.626Z,78.74
2023-03-05T04:38:56.458Z,78.32
2023-03-05T04:41:25.649Z,78.07
2023-03-05T04:43:53.427Z,78.82
2023-03-05T04:46:21.311Z,77.99
2023-03-05T04:48:49.161Z,77.99
2023-03-05T04:51:16.965Z,77.90
2023-03-05T04:53:44.740Z,78.19
2023-03-05T04:56:12.594Z,78.09
2023-03-05T04:58:41.848Z,77.96
2023-03-05T05:01:09.862Z,77.98
2023-03-05T05:03:37.636Z,77.18
2023-03-05T05:06:05.963Z,76.68
2023-03-05T05:08:33.921Z,76.43
2023-03-05T05:11:03.471Z,76.02
2023-03-05T05:13:31.787Z,76.52
2023-03-05T05:16:01.096Z,76.66
2023-03-05T05:18:28.882Z,76.05
2023-03-05T05:20:56.765Z,76.95
2023-03-05T05:23:24.699Z,76.38
2023-03-05T05:25:59.598Z,76.98
2023-03-05T05:28:27.930Z,76.25
2023-03-05T05:30:55.903Z,76.44
2023-03-05T05:33:25.293Z,76.76
2023-03-05T05:35:53.256Z,77.10
2023-03-05T05:38:21.029Z,76.85
2023-03-05T05:40:48.842Z,76.70
2023-03-05T05:43:16.665Z,76.67
2023-03-05T05:45:45.269Z,77.10
2023-03-05T05:48:13.130Z,77.08
2023-03-05T05:50:42.308Z,77.33
2023-03-05T05:53:10.119Z,77.54
2023-03-05T05:55:41.105Z,77.57
2023-03-05T05:58:08.873Z,77.40
2023-03-05T06:00:36.694Z,78.30
2023-03-05T06:03:04.525Z,77.94
2023-03-05T06:05:32.375Z,78.11
2023-03-05T06:08:01.521Z,78.60
2023-03-05T06:10:29.365Z,78.79
2023-03-05T06:12:57.247Z,78.21
2023-03-05T06:15:25.009Z,79.19
2023-03-05T06:17:54.550Z,79.13
2023-03-05T06:20:23.179Z,79.35
2023-03-05T06:22:50.955Z,79.38
2023-03-05T06:25:20.289Z,79.25
2023-03-05T06:27:48.104Z,79.58
2023-03-05T06:30:16.101Z,79.17
2023-03-05T06:32:43.971Z,80.23
2023-03-05T06:35:11.945Z,80.32
2023-03-05T06:37:39.712Z,80.53
2023-03-05T06:40:09.813Z,80.29
2023-03-05T06:42:38.954Z,79.92
2023-03-05T06:45:08.005Z,80.59
2023-03-05T06:47:35.787Z,80.00
2023-03-05T06:50:03.605Z,80.90
2023-03-05T06:52:31.390Z,80.08
2023-03-05T06:54:59.193Z,79.79
2023-03-05T06:57:27.100Z,80.18
2023-03-05T06:59:56.335Z,79.92
2023-03-05T07:02:24.217Z,79.55
2023-03-05T07:04:52.054Z,80.15
2023-03-05T07:07:19.833Z,79.86
2023-03-05T07:09:50.342Z,80.09
2023-03-05T07:12:18.158Z,79.42
2023-03-05T07:14:45.978Z,80.45
2023-03-05T07:17:15.881Z,80.06
2023-03-05T07:19:44.153Z,79.74
2023-03-05T07:22:12.113Z,79.88
2023-03-05T07:24:42.460Z,79.46
2023-03-05T07:27:10.224Z,78.80
2023-03-05T07:29:38.492Z,78.36
2023-03-05T07:32:07.106Z,78.35
2023-03-05T07:34:38.497Z,78.37
2023-03-05T07:37:06.695Z,78.26
2023-03-05T07:39:34.481Z,78.04
2023-03-05T07:42:02.303Z,77.32
2023-03-05T07:44:30.124Z,77.55
2023-03-05T07:46:57.981Z,76.95
2023-03-05T07:49:25.793Z,76.87
2023-03-05T07:51:54.975Z,77.26
2023-03-05T07:54:22.742Z,77.56
2023-03-05T07:56:50.548Z,77.14
2023-03-05T07:59:18.381Z,76.55
2023-03-05T08:01:46.395Z,77.07
2023-03-05T08:04:14.331Z,76.28
2023-03-05T08:06:42.529Z,75.98
2023-03-05T08:09:11.672Z,75.88
2023-03-05T08:11:40.593Z,75.68
2023-03-05T08:14:08.584Z,74.99
2023-03-05T08:16:36.900Z,75.38
2023-03-05T08:19:04.762Z,74.86
2023-03-05T08:21:34.571Z,74.74
2023-03-05T08:24:03.253Z,74.12
2023-03-05T08:26:35.923Z,74.29
2023-03-05T08:29:03.805Z,74.22
2023-03-05T08:31:32.983Z,74.05
2023-03-05T08:34:02.852Z,73.60
2023-03-05T08:36:31.142Z,73.84
2023-03-05T08:38:59.668Z,73.65
2023-03-05T08:41:27.876Z,73.78
2023-03-05T08:43:57.116Z,73.96
2023-03-05T08:46:25.466Z,73.73
2023-03-05T08:48:53.421Z,73.91
2023-03-05T08:51:23.504Z,73.87
2023-03-05T08:53:51.502Z,73.82
2023-03-05T08:56:19.309Z,73.61
2023-03-05T08:58:48.122Z,73.58
2023-03-05T09:01:17.324Z,73.59
2023-03-05T09:03:45.232Z,73.92
2023-03-05T09:06:13.415Z,73.37
2023-03-05T09:08:41.258Z,73.92
2023-03-05T09:11:10.797Z,73.80
2023-03-05T09:13:38.671Z,73.85
2023-03-05T09:16:07.998Z,74.04
2023-03-05T09:18:37.399Z,74.12
2023-03-05T09:21:06.417Z,74.53
2023-03-05T09:23:34.306Z,74.00
2023-03-05T09:26:02.420Z,74.42
2023-03-05T09:28:30.191Z,74.87
2023-03-05T09:30:57.967Z,75.47
2023-03-05T09:33:25.767Z,75.53
2023-03-05T09:35:54.957Z,75.23
2023-03-05T09:38:22.710Z,75.26
2023-03-05T09:40:54.842Z,74.61
2023-03-05T09:43:37.905Z,75.04
2023-03-05T09:46:16.091Z,75.06
2023-03-05T09:48:50.884Z,74.30
2023-03-05T09:51:24.296Z,75.03
2023-03-05T09:53:57.253Z,74.63
2023-03-05T09:56:28.014Z,74.62
2023-03-05T09:58:57.826Z,74.80
2023-03-05T10:01:30.621Z,73.61
2023-03-05T10:04:01.119Z,73.72
2023-03-05T10:06:32.069Z,73.71
2023-03-05T10:09:05.504Z,72.89
2023-03-05T10:11:42.336Z,73.62
2023-03-05T10:14:15.252Z,73.84
2023-03-05T10:17:00.282Z,74.21
2023-03-05T10:19:42.582Z,74.30
2023-03-05T10:22:17.311Z,74.87
2023-03-05T10:24:54.748Z,75.00
2023-03-05T10:27:30.715Z,74.33
2023-03-05T10:30:05.677Z,74.29
2023-03-05T10:32:42.561Z,74.81
2023-03-05T10:35:25.013Z,74.92
2023-03-05T10:38:12.679Z,75.23
2023-03-05T10:40:42.825Z,75.34
2023-03-05T10:43:20.775Z,75.68
2023-03-05T10:45:51.223Z,75.15
2023-03-05T10:48:28.428Z,74.65
2023-03-05T10:51:00.505Z,74.99
2023-03-05T10:53:30.680Z,74.42
2023-03-05T10:56:02.444Z,74.10
2023-03-05T10:58:30.253Z,74.29
2023-03-05T11:01:06.570Z,74.64
2023-03-05T11:03:53.148Z,73.93
2023-03-05T11:06:33.776Z,73.85
2023-03-05T11:09:29.169Z,73.08
2023-03-05T11:12:15.055Z,72.78
2023-03-05T11:14:44.531Z,73.62
2023-03-05T11:17:33.185Z,73.81
2023-03-05T11:20:29.462Z,73.46
2023-03-05T11:23:05.417Z,72.76
2023-03-05T11:25:35.531Z,71.98
2023-03-05T11:28:04.740Z,71.44
2023-03-05T11:30:34.370Z,70.00
2023-03-05T11:33:10.799Z,68.75
2023-03-05T11:35:40.991Z,67.61
2023-03-05T11:38:24.536Z,67.40
2023-03-05T11:40:56.445Z,66.78
2023-03-05T11:43:26.008Z,66.36
2023-03-05T11:45:56.181Z,65.89
2023-03-05T11:48:27.618Z,65.51
2023-03-05T11:50:57.671Z,65.14
2023-03-05T11:53:29.175Z,63.88
2023-03-05T11:56:01.137Z,63.77
2023-03-05T11:58:32.690Z,64.00
2023-03-05T12:01:01.500Z,64.05
2023-03-05T12:03:33.055Z,63.93
2023-03-05T12:06:04.643Z,62.81
2023-03-05T12:08:34.778Z,62.67
2023-03-05T12:11:07.526Z,60.89
2023-03-05T12:13:37.328Z,61.12
2023-03-05T12:16:16.971Z,60.93
2023-03-05T12:18:59.118Z,59.40
2023-03-05T12:21:34.091Z,59.64
2023-03-05T12:24:03.052Z,59.29
2023-03-05T12:26:59.261Z,60.08
2023-03-05T12:29:40.001Z,60.17
2023-03-05T12:33:01.050Z,58.88
2023-03-05T12:35:37.413Z,60.03
2023-03-05T12:38:32.372Z,59.70
2023-03-05T12:41:38.539Z,59.93
2023-03-05T12:44:23.759Z,61.05
2023-03-05T12:47:17.816Z,61.88
2023-03-05T12:49:47.072Z,61.89
2023-03-05T12:52:24.582Z,62.17
2023-03-05T12:55:17.927Z,61.93
2023-03-05T12:57:47.565Z,61.08
2023-03-05T13:00:21.766Z,59.69
2023-03-05T13:02:56.234Z,59.00
2023-03-05T13:05:26.826Z,57.14
2023-03-05T13:07:54.609Z,57.40
2023-03-05T13:10:25.016Z,56.97
2023-03-05T13:12:54.210Z,56.11
2023-03-05T13:15:24.711Z,57.01
2023-03-05T13:17:56.532Z,56.62
2023-03-05T13:20:37.744Z,56.59
2023-03-05T13:23:17.111Z,56.33
2023-03-05T13:25:45.842Z,56.32
2023-03-05T13:28:15.521Z,56.08
2023-03-05T13:30:52.139Z,56.80
2023-03-05T13:33:23.866Z,56.87
2023-03-05T13:35:53.649Z,57.46
2023-03-05T13:38:28.328Z,57.42
2023-03-05T13:41:08.432Z,57.76
2023-03-05T13:43:43.950Z,57.38
2023-03-05T13:46:13.205Z,57.85
2023-03-05T13:48:41.170Z,57.58
2023-03-05T13:51:09.738Z,58.50
2023-03-05T13:53:37.614Z,58.66
2023-03-05T13:56:07.488Z,58.73
2023-03-05T13:58:48.393Z,58.68
2023-03-05T14:01:25.252Z,58.05
2023-03-05T14:03:53.979Z,58.71
2023-03-05T14:06:23.134Z,58.18
2023-03-05T14:08:52.980Z,57.82
2023-03-05T14:11:21.294Z,57.76
2023-03-05T14:13:50.018Z,58.46
2023-03-05T14:16:28.016Z,58.58
2023-03-05T14:18:57.873Z,58.07
2023-03-05T14:21:25.997Z,58.96
2023-03-05T14:23:55.074Z,58.83
2023-03-05T14:26:31.263Z,58.41
2023-03-05T14:29:01.927Z,58.76
2023-03-05T14:31:32.675Z,58.47
2023-03-05T14:34:05.715Z,59.37
2023-03-05T14:36:34.003Z,59.47
2023-03-05T14:39:02.161Z,59.68
2023-03-05T14:41:36.800Z,59.57
2023-03-05T14:44:12.351Z,60.14
2023-03-05T14:46:41.754Z,60.29
2023-03-05T14:49:09.565Z,59.79
2023-03-05T14:51:39.754Z,60.14
2023-03-05T14:54:08.239Z,59.65
2023-03-05T14:56:36.187Z,59.97
2023-03-05T14:59:04.040Z,60.46
2023-03-05T15:01:31.887Z,60.04
2023-03-05T15:04:01.583Z,60.71
2023-03-05T15:06:33.114Z,61.00
2023-03-05T15:09:01.023Z,61.26
2023-03-05T15:11:28.840Z,61.22
2023-03-05T15:13:56.929Z,61.31
2023-03-05T15:16:25.018Z,61.50
2023-03-05T15:18:52.959Z,62.33
2023-03-05T15:21:22.162Z,62.22
2023-03-05T15:23:49.982Z,61.85
2023-03-05T15:26:17.882Z,62.14
2023-03-05T15:28:45.723Z,62.17
2023-03-05T15:31:13.535Z,62.61
2023-03-05T15:33:41.917Z,63.07
2023-03-05T15:36:10.671Z,63.53
2023-03-05T15:38:41.635Z,63.53
2023-03-05T15:41:09.424Z,63.77
2023-03-05T15:43:38.184Z,63.57
2023-03-05T15:46:07.000Z,63.70
2023-03-05T15:48:34.951Z,63.82
2023-03-05T15:51:02.968Z,63.81
2023-03-05T15:53:30.747Z,63.93
2023-03-05T15:55:59.882Z,63.47
2023-03-05T15:58:27.715Z,64.23
2023-03-05T16:00:55.631Z,63.86
2023-03-05T16:03:24.718Z,63.88
2023-03-05T16:05:52.760Z,63.97
2023-03-05T16:08:20.566Z,64.36
2023-03-05T16:10:50.282Z,64.12
2023-03-05T16:13:21.666Z,64.43
2023-03-05T16:15:53.251Z,64.49
2023-03-05T16:18:21.398Z,64.73
2023-03-05T16:20:49.584Z,65.08
2023-03-05T16:23:17.400Z,64.98
2023-03-05T16:25:45.338Z,65.22
2023-03-05T16:28:13.158Z,65.05
2023-03-05T16:30:42.487Z,64.67
2023-03-05T16:33:10.406Z,70.73
2023-03-05T16:35:38.356Z,65.70
2023-03-05T16:38:12.837Z,64.96
2023-03-05T16:41:05.893Z,64.58
2023-03-05T16:43:28.837Z,64.30
2023-03-05T16:45:58.064Z,64.70
2023-03-05T16:48:25.965Z,64.47
2023-03-05T16:50:53.765Z,64.75
2023-03-05T16:53:21.785Z,64.67
2023-03-05T16:55:49.560Z,64.94
2023-03-05T16:58:17.422Z,64.74
2023-03-05T17:00:45.367Z,65.00
2023-03-05T17:03:14.852Z,64.83
2023-03-05T17:05:42.794Z,64.93
2023-03-05T17:08:10.696Z,65.22
2023-03-05T17:10:38.488Z,65.23
2023-03-05T17:13:06.295Z,65.21
2023-03-05T17:15:34.418Z,64.79
2023-03-05T17:18:02.612Z,65.20
2023-03-05T17:20:33.586Z,64.65
2023-03-05T17:26:05.093Z,64.76
2023-03-05T17:28:34.099Z,64.98
2023-03-05T17:31:01.975Z,64.81
2023-03-05T17:33:31.359Z,64.49
2023-03-05T17:36:00.721Z,64.53
2023-03-05T17:38:28.961Z,64.82
2023-03-05T17:40:56.809Z,64.95
2023-03-05T17:43:24.720Z,64.65
2023-03-05T17:45:52.478Z,64.43
2023-03-05T17:48:20.321Z,65.12
2023-03-05T17:50:48.149Z,64.69
2023-03-05T17:53:17.453Z,64.66
2023-03-05T17:55:45.204Z,64.56
2023-03-05T17:58:13.017Z,64.38
2023-03-05T18:00:40.975Z,64.51
2023-03-05T18:03:08.850Z,64.37
2023-03-05T18:05:36.924Z,64.62
2023-03-05T18:08:05.140Z,64.75
2023-03-05T18:10:34.865Z,64.52
2023-03-05T18:13:02.721Z,64.78
2023-03-05T18:15:30.931Z,64.59
2023-03-05T18:17:59.616Z,64.93
2023-03-05T18:20:29.914Z,63.94
2023-03-05T18:22:58.860Z,64.59
2023-03-05T18:25:31.053Z,64.77
2023-03-05T18:28:00.781Z,64.73
2023-03-05T18:30:29.169Z,65.19
2023-03-05T18:32:57.116Z,65.15
2023-03-05T18:35:25.610Z,65.39
2023-03-05T18:37:53.442Z,65.43
2023-03-05T18:40:23.267Z,65.61
2023-03-05T18:42:51.427Z,66.27
2023-03-05T18:45:22.663Z,66.03
2023-03-05T18:47:54.102Z,65.30
2023-03-05T18:50:23.941Z,64.56
2023-03-05T18:52:51.858Z,64.21
2023-03-05T18:55:22.937Z,64.53
2023-03-05T18:57:50.882Z,64.19
2023-03-05T19:00:21.896Z,64.50
2023-03-05T19:02:49.933Z,64.23
2023-03-05T19:05:18.143Z,64.38
2023-03-05T19:07:46.160Z,64.71
2023-03-05T19:10:15.301Z,64.80
2023-03-05T19:12:49.862Z,64.38
2023-03-05T19:15:18.177Z,64.43
2023-03-05T19:17:47.884Z,64.50
2023-03-05T19:20:16.069Z,64.66
2023-03-05T19:22:44.202Z,64.43
2023-03-05T19:25:12.768Z,64.35
2023-03-05T19:27:40.618Z,64.42
2023-03-05T19:30:09.847Z,64.38
2023-03-05T19:32:37.844Z,64.35
2023-03-05T19:35:07.680Z,64.12
2023-03-05T19:37:35.450Z,64.24
2023-03-05T19:40:04.149Z,64.60
2023-03-05T19:42:31.980Z,64.25
2023-03-05T19:45:00.239Z,65.06
2023-03-05T19:47:28.139Z,65.04
2023-03-05T19:49:55.916Z,64.79
2023-03-05T19:52:25.080Z,64.79
2023-03-05T19:54:52.868Z,65.25
2023-03-05T19:57:20.639Z,64.83
2023-03-05T19:59:48.505Z,64.89
2023-03-05T20:02:19.391Z,64.72
2023-03-05T20:04:47.226Z,64.58
2023-03-05T20:07:15.101Z,64.72
2023-03-05T20:09:44.308Z,65.06
2023-03-05T20:12:12.192Z,65.27
2023-03-05T20:14:40.296Z,65.38
2023-03-05T20:17:08.282Z,65.38
2023-03-05T20:19:36.476Z,65.67
2023-03-05T20:22:04.785Z,65.58
2023-03-05T20:24:32.649Z,65.79
2023-03-05T20:27:01.914Z,65.34
2023-03-05T20:29:29.813Z,66.20
2023-03-05T20:31:57.710Z,66.33
2023-03-05T20:34:27.074Z,66.48
2023-03-05T20:36:54.925Z,66.54
2023-03-05T20:39:22.939Z,66.26
2023-03-05T20:41:51.234Z,66.84
2023-03-05T20:44:20.574Z,66.18
2023-03-05T20:46:59.600Z,66.47
2023-03-05T20:49:27.555Z,66.75
2023-03-05T20:51:55.328Z,66.33
2023-03-05T20:54:24.038Z,66.73
2023-03-05T20:56:51.882Z,66.58
2023-03-05T20:59:23.314Z,66.58
2023-03-05T21:01:51.170Z,66.59
2023-03-05T21:04:19.091Z,66.80
2023-03-05T21:06:46.993Z,66.21
2023-03-05T21:09:15.000Z,66.09
2023-03-05T21:11:42.946Z,66.15
2023-03-05T21:14:10.677Z,66.58
2023-03-05T21:16:39.998Z,66.33
2023-03-05T21:19:07.755Z,66.32
2023-03-05T21:21:35.664Z,66.31
2023-03-05T21:24:03.375Z,66.40
2023-03-05T21:26:31.138Z,66.17
2023-03-05T21:28:58.955Z,66.34
2023-03-05T21:31:28.668Z,66.34
2023-03-05T21:33:57.859Z,66.54
2023-03-05T21:36:26.085Z,66.74
2023-03-05T21:38:53.849Z,66.42
2023-03-05T21:41:23.008Z,66.80
2023-03-05T21:43:50.833Z,66.83
2023-03-05T21:46:18.554Z,67.62
2023-03-05T21:48:46.325Z,67.63
2023-03-05T21:51:16.832Z,67.39
2023-03-05T21:53:47.025Z,67.82
2023-03-05T21:56:23.826Z,67.69
2023-03-05T21:58:52.696Z,67.59
2023-03-05T22:01:21.888Z,68.01
2023-03-05T22:03:50.923Z,67.79
2023-03-05T22:06:21.037Z,68.08
2023-03-05T22:08:49.163Z,67.49
2023-03-05T22:11:19.207Z,67.77
2023-03-05T22:13:47.579Z,67.85
2023-03-05T22:16:23.253Z,67.76
2023-03-05T22:18:51.388Z,67.91
2023-03-05T22:21:22.753Z,67.15
2023-03-05T22:23:50.886Z,67.64
2023-03-05T22:26:18.752Z,67.58
2023-03-05T22:28:47.130Z,67.53
2023-03-05T22:31:21.848Z,68.15
2023-03-05T22:33:50.273Z,67.65
2023-03-05T22:36:18.374Z,68.02
2023-03-05T22:38:47.808Z,68.39
2023-03-05T22:41:17.296Z,68.44
2023-03-05T22:43:45.360Z,68.62
2023-03-05T22:46:14.743Z,68.38
2023-03-05T22:48:42.591Z,68.48
2023-03-05T22:51:11.373Z,68.09
2023-03-05T22:53:39.924Z,68.46
2023-03-05T22:56:11.147Z,68.77
2023-03-05T22:58:39.467Z,69.07
2023-03-05T23:01:12.485Z,68.45
2023-03-05T23:03:40.890Z,68.56
2023-03-05T23:06:10.337Z,68.85
2023-03-05T23:08:38.791Z,69.14
2023-03-05T23:11:13.447Z,68.99
2023-03-05T23:13:41.889Z,69.57
2023-03-05T23:16:10.016Z,69.02
2023-03-05T23:18:38.336Z,69.09
2023-03-05T23:21:06.622Z,69.64
2023-03-05T23:23:34.601Z,69.03
2023-03-05T23:26:02.690Z,69.01
2023-03-05T23:28:32.344Z,69.52
2023-03-05T23:31:00.148Z,69.40
2023-03-05T23:33:27.898Z,69.27
2023-03-05T23:35:57.302Z,69.16
2023-03-05T23:38:26.062Z,70.11
2023-03-05T23:40:55.477Z,69.10
2023-03-05T23:43:25.720Z,69.70
2023-03-05T23:45:56.066Z,69.88
2023-03-05T23:48:24.754Z,69.93
2023-03-05T23:50:53.138Z,69.68
2023-03-05T23:53:22.536Z,69.42
2023-03-05T23:55:51.401Z,69.83
2023-03-05T23:58:20.336Z,69.76
